createdAt,value
2024-03-16T00:02:39.749Z,98321.93
2024-03-16T00:05:28.883Z,98323.69
2024-03-16T00:08:16.898Z,98328.05
2024-03-16T00:11:04.683Z,98327.14
2024-03-16T00:13:52.564Z,98327.88
2024-03-16T00:16:40.309Z,98323.66
2024-03-16T00:19:28.104Z,98320.11
2024-03-16T00:22:16.539Z,98318.59
2024-03-16T00:25:06.193Z,98316.36
2024-03-16T00:27:54.240Z,98313.80
2024-03-16T00:30:43.082Z,98315.89
2024-03-16T00:33:30.938Z,98313.95
2024-03-16T00:36:18.924Z,98313.80
2024-03-16T00:39:16.849Z,98310.73
2024-03-16T00:42:05.217Z,98313.91
2024-03-16T00:44:53.004Z,98311.17
2024-03-16T00:47:41.603Z,98312.62
2024-03-16T00:50:30.216Z,98313.35
2024-03-16T00:53:19.199Z,98307.58
2024-03-16T00:56:07.067Z,98305.88
2024-03-16T00:58:55.066Z,98306.21
2024-03-16T01:01:44.151Z,98307.00
2024-03-16T01:04:35.469Z,98301.71
2024-03-16T01:07:23.778Z,98298.40
2024-03-16T01:10:13.378Z,98298.05
2024-03-16T01:13:01.711Z,98298.38
2024-03-16T01:15:51.139Z,98298.89
2024-03-16T01:18:41.103Z,98295.77
2024-03-16T01:21:29.186Z,98295.81
2024-03-16T01:24:17.063Z,98293.65
2024-03-16T01:27:04.726Z,98292.50
2024-03-16T01:29:52.734Z,98294.91
2024-03-16T01:32:40.438Z,98290.79
2024-03-16T01:35:28.409Z,98284.60
2024-03-16T01:38:19.731Z,98283.17
2024-03-16T01:41:07.950Z,98283.64
2024-03-16T01:44:10.764Z,98283.39
2024-03-16T01:46:59.022Z,98280.34
2024-03-16T01:49:47.082Z,98283.64
2024-03-16T01:52:34.683Z,98283.60
2024-03-16T01:55:22.732Z,98284.00
2024-03-16T01:58:10.600Z,98286.31
2024-03-16T02:00:58.840Z,98281.13
2024-03-16T02:03:47.900Z,98284.60
2024-03-16T02:06:36.103Z,98289.63
2024-03-16T02:09:24.593Z,98288.38
2024-03-16T02:12:14.155Z,98286.57
2024-03-16T02:15:03.669Z,98287.77
2024-03-16T02:17:51.942Z,98289.31
2024-03-16T02:20:39.937Z,98293.34
2024-03-16T02:23:27.957Z,98294.58
2024-03-16T02:26:15.640Z,98295.53
2024-03-16T02:29:04.000Z,98297.69
2024-03-16T02:31:54.281Z,98298.70
2024-03-16T02:34:43.098Z,98300.04
2024-03-16T02:37:31.241Z,98302.61
2024-03-16T02:40:18.978Z,98304.96
2024-03-16T02:43:07.552Z,98303.20
2024-03-16T02:45:59.001Z,98302.31
2024-03-16T02:48:47.148Z,98302.19
2024-03-16T02:51:35.343Z,98295.27
2024-03-16T02:54:23.405Z,98297.05
2024-03-16T02:57:11.221Z,98296.45
2024-03-16T02:59:58.786Z,98299.70
2024-03-16T03:02:46.586Z,98298.94
2024-03-16T03:05:34.408Z,98295.76
2024-03-16T03:08:22.608Z,98301.65
2024-03-16T03:11:10.851Z,98301.58
2024-03-16T03:13:58.584Z,98298.03
2024-03-16T03:16:46.386Z,98292.63
2024-03-16T03:19:34.159Z,98285.20
2024-03-16T03:22:21.852Z,98285.41
2024-03-16T03:25:11.670Z,98289.19
2024-03-16T03:28:00.337Z,98292.27
2024-03-16T03:30:50.306Z,98288.98
2024-03-16T03:33:39.487Z,98291.07
2024-03-16T03:36:27.930Z,98294.02
2024-03-16T03:39:17.229Z,98289.67
2024-03-16T03:42:05.640Z,98291.91
2024-03-16T03:45:12.387Z,98292.90
2024-03-16T03:48:19.751Z,98290.64
2024-03-16T03:51:08.157Z,98289.30
2024-03-16T03:53:58.919Z,98287.48
2024-03-16T03:56:47.104Z,98285.58
2024-03-16T03:59:35.376Z,98284.59
2024-03-16T04:02:23.211Z,98289.86
2024-03-16T04:05:11.068Z,98292.46
2024-03-16T04:07:59.934Z,98295.69
2024-03-16T04:10:48.230Z,98298.83
2024-03-16T04:13:35.882Z,98291.72
2024-03-16T04:16:23.773Z,98291.20
2024-03-16T04:19:12.270Z,98296.99
2024-03-16T04:22:00.380Z,98293.14
2024-03-16T04:24:48.517Z,98296.91
2024-03-16T04:27:37.360Z,98295.33
2024-03-16T04:30:25.255Z,98295.66
2024-03-16T04:33:13.794Z,98293.50
2024-03-16T04:36:01.481Z,98294.61
2024-03-16T04:38:49.675Z,98296.39
2024-03-16T04:41:37.312Z,98300.77
2024-03-16T04:44:25.045Z,98302.34
2024-03-16T04:47:12.914Z,98304.35
2024-03-16T04:50:01.561Z,98301.56
2024-03-16T04:52:49.591Z,98308.66
2024-03-16T04:55:37.360Z,98308.13
2024-03-16T04:58:26.475Z,98310.35
2024-03-16T05:01:14.970Z,98309.71
2024-03-16T05:04:03.039Z,98307.02
2024-03-16T05:06:50.949Z,98310.80
2024-03-16T05:09:38.779Z,98313.30
2024-03-16T05:12:26.258Z,98312.08
2024-03-16T05:15:14.012Z,98315.88
2024-03-16T05:18:01.752Z,98314.36
2024-03-16T05:20:52.301Z,98319.69
2024-03-16T05:23:41.035Z,98317.95
2024-03-16T05:26:31.898Z,98318.96
2024-03-16T05:29:20.201Z,98318.36
2024-03-16T05:32:08.130Z,98321.41
2024-03-16T05:34:56.572Z,98320.12
2024-03-16T05:37:44.541Z,98323.35
2024-03-16T05:40:32.540Z,98326.80
2024-03-16T05:43:20.229Z,98330.34
2024-03-16T05:46:07.735Z,98328.77
2024-03-16T05:48:55.903Z,98328.06
2024-03-16T05:51:44.827Z,98324.61
2024-03-16T05:54:35.378Z,98326.84
2024-03-16T05:57:23.692Z,98327.20
2024-03-16T06:00:15.708Z,98327.09
2024-03-16T06:03:04.052Z,98322.88
2024-03-16T06:05:52.903Z,98317.77
2024-03-16T06:08:40.634Z,98319.35
2024-03-16T06:11:28.465Z,98324.51
2024-03-16T06:14:16.918Z,98328.42
2024-03-16T06:17:05.207Z,98333.09
2024-03-16T06:19:54.993Z,98330.30
2024-03-16T06:22:43.212Z,98332.38
2024-03-16T06:25:37.143Z,98340.39
2024-03-16T06:28:25.457Z,98340.89
2024-03-16T06:31:13.243Z,98352.11
2024-03-16T06:34:05.964Z,98357.70
2024-03-16T06:36:54.486Z,98355.51
2024-03-16T06:39:42.666Z,98356.72
2024-03-16T06:42:30.802Z,98364.48
2024-03-16T06:45:18.721Z,98367.54
2024-03-16T06:48:07.379Z,98372.09
2024-03-16T06:50:55.388Z,98375.02
2024-03-16T06:53:43.602Z,98378.55
2024-03-16T06:56:32.337Z,98378.54
2024-03-16T06:59:20.545Z,98383.86
2024-03-16T07:02:09.345Z,98384.28
2024-03-16T07:04:57.395Z,98381.92
2024-03-16T07:07:45.308Z,98384.48
2024-03-16T07:10:33.127Z,98380.79
2024-03-16T07:13:21.470Z,98383.85
2024-03-16T07:16:15.117Z,98389.45
2024-03-16T07:19:04.040Z,98396.11
2024-03-16T07:21:52.405Z,98393.27
2024-03-16T07:24:40.178Z,98394.94
2024-03-16T07:27:27.720Z,98397.96
2024-03-16T07:30:15.547Z,98401.61
2024-03-16T07:33:04.810Z,98403.77
2024-03-16T07:35:53.451Z,98406.84
2024-03-16T07:38:41.479Z,98407.32
2024-03-16T07:41:29.592Z,98412.95
2024-03-16T07:44:17.348Z,98415.20
2024-03-16T07:47:05.601Z,98418.41
2024-03-16T07:49:53.719Z,98417.23
2024-03-16T07:52:41.333Z,98416.54
2024-03-16T07:55:31.210Z,98417.30
2024-03-16T07:58:19.168Z,98413.44
2024-03-16T08:01:07.301Z,98415.63
2024-03-16T08:03:55.063Z,98416.09
2024-03-16T08:06:43.134Z,98418.30
2024-03-16T08:09:31.858Z,98419.49
2024-03-16T08:12:19.667Z,98418.83
2024-03-16T08:15:08.273Z,98416.66
2024-03-16T08:17:58.767Z,98415.07
2024-03-16T08:20:46.872Z,98412.98
2024-03-16T08:23:34.499Z,98414.55
2024-03-16T08:26:22.384Z,98417.98
2024-03-16T08:29:10.173Z,98421.20
2024-03-16T08:31:59.579Z,98421.02
2024-03-16T08:34:47.790Z,98419.88
2024-03-16T08:37:35.708Z,98419.20
2024-03-16T08:40:23.420Z,98414.15
2024-03-16T08:43:12.613Z,98417.38
2024-03-16T08:46:07.310Z,98417.08
2024-03-16T08:48:55.042Z,98417.85
2024-03-16T08:51:44.157Z,98413.16
2024-03-16T08:54:39.007Z,98412.73
2024-03-16T08:57:28.121Z,98409.42
2024-03-16T09:00:16.037Z,98410.25
2024-03-16T09:03:06.061Z,98402.14
2024-03-16T09:05:54.688Z,98405.30
2024-03-16T09:08:42.908Z,98404.20
2024-03-16T09:11:30.915Z,98404.42
2024-03-16T09:14:18.810Z,98400.14
2024-03-16T09:17:06.752Z,98401.49
2024-03-16T09:19:55.480Z,98397.52
2024-03-16T09:22:44.775Z,98401.07
2024-03-16T09:25:33.026Z,98400.33
2024-03-16T09:28:23.167Z,98392.66
2024-03-16T09:31:11.665Z,98386.33
2024-03-16T09:34:00.776Z,98390.47
2024-03-16T09:36:49.025Z,98385.75
2024-03-16T09:39:36.767Z,98385.17
2024-03-16T09:42:24.362Z,98381.06
2024-03-16T09:45:19.596Z,98379.27
2024-03-16T09:48:10.776Z,98379.67
2024-03-16T09:50:59.362Z,98382.18
2024-03-16T09:53:47.227Z,98381.73
2024-03-16T09:56:38.083Z,98382.88
2024-03-16T09:59:30.951Z,98378.56
2024-03-16T10:02:25.689Z,98378.02
2024-03-16T10:05:14.493Z,98374.94
2024-03-16T10:08:02.644Z,98369.91
2024-03-16T10:10:51.925Z,98373.88
2024-03-16T10:13:54.286Z,98373.88
2024-03-16T10:16:42.534Z,98376.68
2024-03-16T10:19:33.395Z,98379.27
2024-03-16T10:22:21.513Z,98378.16
2024-03-16T10:25:11.041Z,98373.81
2024-03-16T10:27:58.633Z,98369.66
2024-03-16T10:30:47.134Z,98369.42
2024-03-16T10:33:39.600Z,98364.42
2024-03-16T10:36:30.270Z,98364.36
2024-03-16T10:39:19.026Z,98362.02
2024-03-16T10:42:16.719Z,98364.31
2024-03-16T10:45:05.211Z,98361.79
2024-03-16T10:47:57.194Z,98366.69
2024-03-16T10:50:48.629Z,98369.69
2024-03-16T10:53:40.700Z,98368.86
2024-03-16T10:56:33.621Z,98366.23
2024-03-16T10:59:34.237Z,98372.93
2024-03-16T11:02:24.510Z,98371.55
2024-03-16T11:05:40.648Z,98372.08
2024-03-16T11:08:47.843Z,98373.88
2024-03-16T11:11:36.604Z,98371.17
2024-03-16T11:14:26.287Z,98369.63
2024-03-16T11:17:27.695Z,98372.83
2024-03-16T11:20:39.241Z,98368.36
2024-03-16T11:23:28.645Z,98376.63
2024-03-16T11:26:28.575Z,98372.02
2024-03-16T11:29:19.983Z,98371.38
2024-03-16T11:32:11.579Z,98367.45
2024-03-16T11:34:59.318Z,98361.14
2024-03-16T11:37:50.588Z,98360.88
2024-03-16T11:40:43.992Z,98358.73
2024-03-16T11:43:31.937Z,98358.86
2024-03-16T11:46:20.643Z,98359.05
2024-03-16T11:49:16.036Z,98353.67
2024-03-16T11:52:05.919Z,98352.79
2024-03-16T11:54:53.735Z,98345.31
2024-03-16T11:57:41.902Z,98340.11
2024-03-16T12:00:30.670Z,98339.74
2024-03-16T12:03:21.552Z,98333.19
2024-03-16T12:06:11.531Z,98329.20
2024-03-16T12:08:59.165Z,98335.79
2024-03-16T12:11:49.876Z,98331.03
2024-03-16T12:14:43.232Z,98334.25
2024-03-16T12:17:32.199Z,98336.16
2024-03-16T12:20:21.305Z,98334.27
2024-03-16T12:23:09.824Z,98334.21
2024-03-16T12:25:59.836Z,98341.77
2024-03-16T12:28:49.331Z,98337.42
2024-03-16T12:31:39.372Z,98336.88
2024-03-16T12:34:29.181Z,98336.23
2024-03-16T12:37:17.605Z,98344.78
2024-03-16T12:40:07.296Z,98356.30
2024-03-16T12:42:55.426Z,98357.04
2024-03-16T12:45:43.217Z,98359.84
2024-03-16T12:48:32.027Z,98365.62
2024-03-16T12:51:20.872Z,98366.41
2024-03-16T12:54:10.976Z,98367.17
2024-03-16T12:56:59.307Z,98378.98
2024-03-16T12:59:47.668Z,98396.75
2024-03-16T13:02:35.821Z,98420.36
2024-03-16T13:05:23.897Z,98427.62
2024-03-16T13:08:11.904Z,98435.73
2024-03-16T13:11:00.242Z,98434.16
2024-03-16T13:13:48.762Z,98423.41
2024-03-16T13:16:38.216Z,98408.79
2024-03-16T13:19:27.799Z,98398.80
2024-03-16T13:22:15.652Z,98402.39
2024-03-16T13:25:04.980Z,98404.70
2024-03-16T13:27:52.375Z,98403.95
2024-03-16T13:30:40.466Z,98406.23
2024-03-16T13:33:28.329Z,98408.98
2024-03-16T13:36:16.957Z,98410.89
2024-03-16T13:39:08.973Z,98409.25
2024-03-16T13:41:56.817Z,98398.21
2024-03-16T13:44:45.214Z,98395.15
2024-03-16T13:47:33.405Z,98395.26
2024-03-16T13:50:21.352Z,98386.10
2024-03-16T13:53:09.494Z,98382.20
2024-03-16T13:55:58.971Z,98378.56
2024-03-16T13:58:47.221Z,98377.31
2024-03-16T14:01:35.783Z,98376.11
2024-03-16T14:04:23.817Z,98375.27
2024-03-16T14:07:11.640Z,98372.35
2024-03-16T14:10:02.193Z,98373.06
2024-03-16T14:12:53.382Z,98365.86
2024-03-16T14:15:41.332Z,98363.38
2024-03-16T14:18:29.683Z,98362.52
2024-03-16T14:21:17.330Z,98355.77
2024-03-16T14:24:05.624Z,98349.91
2024-03-16T14:26:53.394Z,98351.41
2024-03-16T14:29:41.401Z,98348.88
2024-03-16T14:32:29.884Z,98346.38
2024-03-16T14:35:17.670Z,98348.50
2024-03-16T14:38:06.693Z,98351.50
2024-03-16T14:40:55.799Z,98347.27
2024-03-16T14:43:44.794Z,98343.39
2024-03-16T14:46:32.731Z,98339.41
2024-03-16T14:49:23.020Z,98341.10
2024-03-16T14:52:11.503Z,98344.39
2024-03-16T14:55:00.328Z,98338.66
2024-03-16T14:57:48.378Z,98334.76
2024-03-16T15:00:37.147Z,98333.69
2024-03-16T15:03:24.870Z,98329.88
2024-03-16T15:06:13.213Z,98330.54
2024-03-16T15:09:08.050Z,98332.98
2024-03-16T15:11:56.058Z,98330.46
2024-03-16T15:14:46.687Z,98329.33
2024-03-16T15:17:36.553Z,98327.13
2024-03-16T15:20:26.227Z,98331.30
2024-03-16T15:23:13.756Z,98333.38
2024-03-16T15:26:16.972Z,98336.55
2024-03-16T15:29:04.966Z,98338.77
2024-03-16T15:31:52.942Z,98341.67
2024-03-16T15:34:40.596Z,98339.85
2024-03-16T15:37:28.883Z,98336.35
2024-03-16T15:40:16.994Z,98338.12
2024-03-16T15:43:05.018Z,98339.81
2024-03-16T15:45:52.632Z,98339.92
2024-03-16T15:48:40.190Z,98344.59
2024-03-16T15:51:29.975Z,98343.34
2024-03-16T15:54:17.783Z,98343.73
2024-03-16T15:57:07.303Z,98344.11
2024-03-16T15:59:55.230Z,98340.23
2024-03-16T16:02:43.186Z,98342.30
2024-03-16T16:05:31.104Z,98345.05
2024-03-16T16:08:19.253Z,98350.29
2024-03-16T16:11:08.039Z,98349.00
2024-03-16T16:13:56.141Z,98350.90
2024-03-16T16:16:44.269Z,98355.00
2024-03-16T16:19:32.421Z,98353.88
2024-03-16T16:22:20.506Z,98348.55
2024-03-16T16:25:08.736Z,98350.80
2024-03-16T16:27:56.493Z,98354.33
2024-03-16T16:30:44.722Z,98358.07
2024-03-16T16:33:32.492Z,98360.08
2024-03-16T16:36:20.671Z,98359.98
2024-03-16T16:39:08.815Z,98364.85
2024-03-16T16:41:56.750Z,98366.98
2024-03-16T16:44:44.688Z,98366.70
2024-03-16T16:47:32.525Z,98368.25
2024-03-16T16:50:20.273Z,98365.56
2024-03-16T16:53:09.839Z,98368.33
2024-03-16T16:55:58.396Z,98368.34
2024-03-16T16:58:46.025Z,98371.63
2024-03-16T17:01:33.866Z,98375.50
2024-03-16T17:04:21.601Z,98377.98
2024-03-16T17:07:14.055Z,98380.48
2024-03-16T17:10:13.458Z,98386.55
2024-03-16T17:13:03.141Z,98392.05
2024-03-16T17:15:52.087Z,98391.98
2024-03-16T17:18:39.657Z,98394.16
2024-03-16T17:21:27.380Z,98401.45
2024-03-16T17:24:15.197Z,98403.40
2024-03-16T17:27:07.327Z,98409.96
2024-03-16T17:29:55.689Z,98415.81
2024-03-16T17:32:44.038Z,98418.13
2024-03-16T17:35:34.988Z,98413.27
2024-03-16T17:38:25.970Z,98412.65
2024-03-16T17:41:14.162Z,98412.42
2024-03-16T17:44:02.058Z,98416.53
2024-03-16T17:46:49.804Z,98422.44
2024-03-16T17:49:39.970Z,98419.80
2024-03-16T17:52:27.632Z,98422.39
2024-03-16T17:55:16.803Z,98427.64
2024-03-16T17:58:06.349Z,98428.39
2024-03-16T18:00:54.191Z,98435.30
2024-03-16T18:03:42.058Z,98439.03
2024-03-16T18:06:29.761Z,98442.66
2024-03-16T18:09:21.716Z,98445.48
2024-03-16T18:12:12.185Z,98450.85
2024-03-16T18:14:59.808Z,98454.60
2024-03-16T18:17:54.664Z,98454.18
2024-03-16T18:20:46.767Z,98459.14
2024-03-16T18:23:35.516Z,98466.43
2024-03-16T18:26:23.456Z,98475.39
2024-03-16T18:29:11.103Z,98477.52
2024-03-16T18:31:58.933Z,98478.98
2024-03-16T18:34:47.067Z,98483.00
2024-03-16T18:37:35.136Z,98487.14
2024-03-16T18:40:22.949Z,98488.73
2024-03-16T18:43:15.940Z,98489.47
2024-03-16T18:46:04.665Z,98493.97
2024-03-16T18:48:54.686Z,98498.58
2024-03-16T18:51:42.722Z,98494.70
2024-03-16T18:54:30.529Z,98498.02
2024-03-16T18:57:20.006Z,98504.65
2024-03-16T19:00:18.391Z,98510.38
2024-03-16T19:03:14.397Z,98516.52
2024-03-16T19:06:05.763Z,98516.92
2024-03-16T19:08:53.704Z,98521.23
2024-03-16T19:11:42.493Z,98518.48
2024-03-16T19:14:30.681Z,98525.16
2024-03-16T19:17:18.785Z,98530.14
2024-03-16T19:20:08.711Z,98531.49
2024-03-16T19:22:58.504Z,98532.71
2024-03-16T19:25:46.742Z,98530.33
2024-03-16T19:28:34.684Z,98530.27
2024-03-16T19:31:25.921Z,98529.85
2024-03-16T19:34:13.934Z,98531.53
2024-03-16T19:37:02.080Z,98532.37
2024-03-16T19:39:50.181Z,98534.30
2024-03-16T19:42:38.779Z,98536.73
2024-03-16T19:45:27.244Z,98534.33
2024-03-16T19:48:15.711Z,98534.80
2024-03-16T19:51:04.032Z,98535.35
2024-03-16T19:53:51.931Z,98537.95
2024-03-16T19:56:39.871Z,98536.56
2024-03-16T19:59:27.964Z,98535.02
2024-03-16T20:02:17.532Z,98539.74
2024-03-16T20:05:06.084Z,98542.84
2024-03-16T20:07:55.661Z,98543.42
2024-03-16T20:10:43.769Z,98543.73
2024-03-16T20:13:31.950Z,98545.05
2024-03-16T20:16:19.836Z,98549.50
2024-03-16T20:19:08.138Z,98555.74
2024-03-16T20:21:57.594Z,98560.31
2024-03-16T20:24:47.032Z,98567.10
2024-03-16T20:27:35.992Z,98572.21
2024-03-16T20:30:23.706Z,98571.58
2024-03-16T20:33:14.034Z,98574.95
2024-03-16T20:36:02.049Z,98576.05
2024-03-16T20:38:50.063Z,98575.73
2024-03-16T20:41:39.539Z,98573.75
2024-03-16T20:44:27.525Z,98580.49
2024-03-16T20:47:15.519Z,98587.41
2024-03-16T20:50:07.488Z,98587.83
2024-03-16T20:52:55.387Z,98589.39
2024-03-16T20:55:44.043Z,98597.20
2024-03-16T20:58:32.808Z,98598.63
2024-03-16T21:01:20.845Z,98598.22
2024-03-16T21:04:10.003Z,98607.52
2024-03-16T21:06:57.985Z,98611.15
2024-03-16T21:09:45.910Z,98614.64
2024-03-16T21:12:37.441Z,98615.87
2024-03-16T21:15:26.583Z,98621.02
2024-03-16T21:18:15.870Z,98626.98
2024-03-16T21:21:14.655Z,98637.27
2024-03-16T21:25:20.735Z,98638.90
2024-03-16T21:28:16.660Z,98641.95
2024-03-16T21:31:06.974Z,98640.61
2024-03-16T21:33:55.442Z,98641.98
2024-03-16T21:36:43.882Z,98649.98
2024-03-16T21:39:33.085Z,98654.30
2024-03-16T21:42:20.849Z,98655.31
2024-03-16T21:45:10.063Z,98656.03
2024-03-16T21:47:58.162Z,98658.69
2024-03-16T21:50:47.952Z,98660.41
2024-03-16T21:53:37.377Z,98666.14
2024-03-16T21:56:25.587Z,98669.93
2024-03-16T21:59:13.809Z,98668.91
2024-03-16T22:02:02.478Z,98670.73
2024-03-16T22:04:53.295Z,98675.39
2024-03-16T22:07:43.789Z,98678.35
2024-03-16T22:10:32.837Z,98679.85
2024-03-16T22:13:20.828Z,98683.17
2024-03-16T22:16:09.239Z,98685.98
2024-03-16T22:18:57.290Z,98683.63
2024-03-16T22:21:45.310Z,98688.70
2024-03-16T22:24:34.492Z,98690.00
2024-03-16T22:27:25.088Z,98692.05
2024-03-16T22:30:16.208Z,98695.30
2024-03-16T22:33:06.692Z,98696.36
2024-03-16T22:35:54.332Z,98695.20
2024-03-16T22:38:42.313Z,98699.77
2024-03-16T22:41:30.614Z,98711.60
2024-03-16T22:44:19.972Z,98738.73
2024-03-16T22:47:07.726Z,98750.06
2024-03-16T22:49:55.821Z,98761.52
2024-03-16T22:52:43.809Z,98763.95
2024-03-16T22:55:32.016Z,98768.62
2024-03-16T22:58:19.887Z,98772.71
2024-03-16T23:01:07.973Z,98774.23
2024-03-16T23:03:56.803Z,98778.02
2024-03-16T23:06:47.801Z,98783.60
2024-03-16T23:09:35.763Z,98788.48
2024-03-16T23:12:24.188Z,98791.06
2024-03-16T23:15:12.336Z,98788.02
2024-03-16T23:18:00.070Z,98789.67
2024-03-16T23:20:48.315Z,98794.91
2024-03-16T23:23:37.426Z,98799.51
2024-03-16T23:26:32.115Z,98801.45
2024-03-16T23:29:25.004Z,98805.31
2024-03-16T23:32:13.488Z,98806.92
2024-03-16T23:35:01.735Z,98814.52
2024-03-16T23:37:50.216Z,98819.70
2024-03-16T23:40:39.296Z,98823.73
2024-03-16T23:43:27.326Z,98827.98
2024-03-16T23:46:15.239Z,98830.59
2024-03-16T23:49:04.498Z,98834.33
2024-03-16T23:51:52.490Z,98840.33
2024-03-16T23:54:40.993Z,98848.77
2024-03-16T23:57:28.837Z,98844.89
